createdAt,value
2022-12-29T00:00:08.351Z,994.36
2022-12-29T00:01:08.317Z,994.38
2022-12-29T00:02:08.263Z,994.43
2022-12-29T00:03:08.316Z,994.37
2022-12-29T00:04:14.300Z,994.28
2022-12-29T00:05:09.240Z,994.27
2022-12-29T00:06:08.216Z,994.28
2022-12-29T00:07:08.184Z,994.25
2022-12-29T00:08:08.178Z,994.25
2022-12-29T00:09:08.172Z,994.26
2022-12-29T00:10:08.197Z,994.29
2022-12-29T00:11:08.146Z,994.23
2022-12-29T00:12:08.124Z,994.21
2022-12-29T00:13:08.104Z,994.19
2022-12-29T00:14:08.097Z,994.18
2022-12-29T00:15:08.094Z,994.19
2022-12-29T00:16:08.141Z,994.17
2022-12-29T00:17:08.046Z,994.14
2022-12-29T00:18:08.058Z,994.11
2022-12-29T00:19:08.024Z,994.08
2022-12-29T00:20:08.046Z,994.09
2022-12-29T00:21:08.025Z,994.09
2022-12-29T00:22:08.011Z,994.13
2022-12-29T00:23:07.989Z,994.06
2022-12-29T00:24:07.958Z,994.12
2022-12-29T00:25:07.973Z,994.10
2022-12-29T00:26:07.943Z,994.05
2022-12-29T00:27:07.921Z,994.10
2022-12-29T00:28:08.023Z,994.14
2022-12-29T00:29:07.900Z,994.13
2022-12-29T00:30:07.889Z,994.06
2022-12-29T00:31:07.916Z,994.10
2022-12-29T00:32:08.002Z,994.08
2022-12-29T00:33:07.847Z,994.08
2022-12-29T00:34:07.822Z,994.00
2022-12-29T00:35:07.836Z,994.01
2022-12-29T00:36:07.827Z,993.98
2022-12-29T00:37:07.786Z,994.03
2022-12-29T00:38:07.790Z,993.95
2022-12-29T00:39:07.787Z,994.01
2022-12-29T00:40:07.779Z,994.04
2022-12-29T00:41:07.767Z,994.06
2022-12-29T00:42:07.745Z,993.99
2022-12-29T00:43:07.720Z,994.02
2022-12-29T00:44:07.720Z,993.99
2022-12-29T00:45:07.717Z,993.99
2022-12-29T00:46:07.746Z,993.85
2022-12-29T00:47:07.691Z,993.85
2022-12-29T00:48:07.666Z,993.81
2022-12-29T00:49:07.633Z,993.79
2022-12-29T00:50:07.626Z,993.79
2022-12-29T00:51:07.619Z,993.76
2022-12-29T00:52:07.597Z,993.79
2022-12-29T00:53:07.560Z,993.75
2022-12-29T00:54:07.566Z,993.73
2022-12-29T00:55:07.548Z,993.71
2022-12-29T00:56:07.550Z,993.63
2022-12-29T00:57:07.532Z,993.67
2022-12-29T00:58:07.554Z,993.60
2022-12-29T00:59:07.499Z,993.63
2022-12-29T01:00:07.499Z,993.58
2022-12-29T01:01:07.552Z,993.61
2022-12-29T01:02:07.538Z,993.53
2022-12-29T01:03:07.495Z,993.62
2022-12-29T01:04:07.436Z,993.52
2022-12-29T01:05:07.436Z,993.54
2022-12-29T01:06:07.426Z,993.47
2022-12-29T01:07:07.408Z,993.50
2022-12-29T01:08:07.382Z,993.53
2022-12-29T01:09:07.393Z,993.54
2022-12-29T01:10:07.398Z,993.64
2022-12-29T01:11:07.360Z,993.59
2022-12-29T01:12:07.351Z,993.60
2022-12-29T01:13:07.326Z,993.55
2022-12-29T01:14:07.334Z,993.48
2022-12-29T01:15:07.297Z,993.49
2022-12-29T01:16:07.445Z,993.46
2022-12-29T01:17:07.281Z,993.50
2022-12-29T01:18:07.273Z,993.47
2022-12-29T01:19:07.277Z,993.42
2022-12-29T01:20:07.336Z,993.47
2022-12-29T01:21:07.203Z,993.47
2022-12-29T01:22:07.374Z,993.52
2022-12-29T01:23:07.192Z,993.47
2022-12-29T01:24:07.162Z,993.43
2022-12-29T01:25:07.306Z,993.47
2022-12-29T01:26:07.169Z,993.38
2022-12-29T01:27:07.120Z,993.46
2022-12-29T01:28:07.124Z,993.42
2022-12-29T01:29:07.123Z,993.33
2022-12-29T01:30:07.107Z,993.34
2022-12-29T01:31:07.123Z,993.42
2022-12-29T01:32:07.081Z,993.35
2022-12-29T01:33:07.053Z,993.40
2022-12-29T01:34:07.071Z,993.32
2022-12-29T01:35:07.058Z,993.32
2022-12-29T01:36:07.016Z,993.37
2022-12-29T01:37:07.007Z,993.32
2022-12-29T01:38:06.995Z,993.39
2022-12-29T01:39:06.999Z,993.40
2022-12-29T01:40:07.029Z,993.37
2022-12-29T01:41:06.952Z,993.37
2022-12-29T01:42:06.928Z,993.47
2022-12-29T01:43:06.920Z,993.47
2022-12-29T01:44:06.907Z,993.50
2022-12-29T01:45:06.920Z,993.51
2022-12-29T01:46:06.911Z,993.55
2022-12-29T01:47:06.861Z,993.52
2022-12-29T01:48:06.838Z,993.54
2022-12-29T01:49:06.828Z,993.54
2022-12-29T01:50:06.870Z,993.48
2022-12-29T01:51:06.811Z,993.46
2022-12-29T01:52:06.809Z,993.45
2022-12-29T01:53:06.786Z,993.45
2022-12-29T01:54:06.787Z,993.47
2022-12-29T01:55:06.819Z,993.48
2022-12-29T01:56:06.749Z,993.47
2022-12-29T01:57:06.730Z,993.45
2022-12-29T01:58:06.746Z,993.45
2022-12-29T01:59:06.708Z,993.41
2022-12-29T02:00:06.706Z,993.46
2022-12-29T02:01:06.736Z,993.48
2022-12-29T02:02:06.693Z,993.49
2022-12-29T02:03:06.718Z,993.52
2022-12-29T02:04:06.638Z,993.48
2022-12-29T02:05:06.676Z,993.52
2022-12-29T02:06:06.617Z,993.54
2022-12-29T02:07:06.625Z,993.48
2022-12-29T02:08:06.598Z,993.50
2022-12-29T02:09:06.593Z,993.47
2022-12-29T02:10:06.581Z,993.55
2022-12-29T02:11:06.554Z,993.56
2022-12-29T02:12:06.548Z,993.60
2022-12-29T02:13:06.587Z,993.57
2022-12-29T02:14:06.516Z,993.53
2022-12-29T02:15:06.527Z,993.63
2022-12-29T02:16:06.508Z,993.63
2022-12-29T02:17:06.477Z,993.66
2022-12-29T02:18:06.482Z,993.63
2022-12-29T02:19:06.461Z,993.61
2022-12-29T02:20:06.444Z,993.59
2022-12-29T02:21:06.458Z,993.57
2022-12-29T02:22:06.395Z,993.59
2022-12-29T02:23:06.385Z,993.56
2022-12-29T02:24:06.367Z,993.60
2022-12-29T02:25:06.373Z,993.61
2022-12-29T02:26:06.363Z,993.59
2022-12-29T02:27:06.364Z,993.60
2022-12-29T02:28:06.324Z,993.65
2022-12-29T02:29:06.321Z,993.65
2022-12-29T02:30:06.336Z,993.64
2022-12-29T02:31:06.289Z,993.65
2022-12-29T02:32:06.370Z,993.61
2022-12-29T02:33:06.257Z,993.60
2022-12-29T02:34:06.235Z,993.59
2022-12-29T02:35:06.273Z,993.62
2022-12-29T02:36:06.227Z,993.66
2022-12-29T02:37:06.197Z,993.61
2022-12-29T02:38:06.200Z,993.66
2022-12-29T02:39:06.207Z,993.61
2022-12-29T02:40:06.169Z,993.67
2022-12-29T02:41:06.155Z,993.65
2022-12-29T02:42:06.144Z,993.62
2022-12-29T02:43:06.137Z,993.58
2022-12-29T02:44:06.099Z,993.56
2022-12-29T02:45:06.151Z,993.59
2022-12-29T02:46:06.110Z,993.55
2022-12-29T02:47:06.087Z,993.48
2022-12-29T02:48:06.068Z,993.48
2022-12-29T02:49:06.083Z,993.50
2022-12-29T02:50:06.075Z,993.51
2022-12-29T02:51:06.050Z,993.46
2022-12-29T02:52:06.009Z,993.46
2022-12-29T02:53:06.002Z,993.47
2022-12-29T02:54:05.985Z,993.40
2022-12-29T02:55:05.973Z,993.46
2022-12-29T02:56:05.957Z,993.40
2022-12-29T02:57:05.962Z,993.40
2022-12-29T02:58:05.920Z,993.39
2022-12-29T02:59:05.920Z,993.27
2022-12-29T03:00:05.975Z,993.35
2022-12-29T03:01:05.965Z,993.30
2022-12-29T03:02:06.119Z,993.31
2022-12-29T03:03:05.988Z,993.30
2022-12-29T03:04:05.863Z,993.34
2022-12-29T03:05:05.898Z,993.23
2022-12-29T03:06:05.850Z,993.25
2022-12-29T03:07:05.849Z,993.20
2022-12-29T03:08:05.838Z,993.23
2022-12-29T03:09:05.828Z,993.18
2022-12-29T03:10:06.778Z,993.25
2022-12-29T03:11:05.747Z,993.21
2022-12-29T03:12:05.744Z,993.18
2022-12-29T03:13:05.745Z,993.22
2022-12-29T03:14:05.719Z,993.21
2022-12-29T03:15:05.708Z,993.21
2022-12-29T03:16:05.694Z,993.21
2022-12-29T03:17:05.753Z,993.21
2022-12-29T03:18:05.661Z,993.19
2022-12-29T03:19:05.660Z,993.23
2022-12-29T03:20:05.655Z,993.23
2022-12-29T03:21:05.623Z,993.19
2022-12-29T03:22:05.623Z,993.19
2022-12-29T03:23:05.588Z,993.27
2022-12-29T03:24:05.577Z,993.21
2022-12-29T03:25:05.596Z,993.26
2022-12-29T03:26:05.547Z,993.24
2022-12-29T03:27:05.535Z,993.22
2022-12-29T03:28:05.514Z,993.23
2022-12-29T03:29:05.526Z,993.19
2022-12-29T03:30:05.511Z,993.20
2022-12-29T03:31:05.576Z,993.22
2022-12-29T03:32:05.492Z,993.13
2022-12-29T03:33:05.471Z,993.13
2022-12-29T03:34:05.461Z,993.12
2022-12-29T03:35:05.445Z,993.12
2022-12-29T03:36:05.426Z,993.05
2022-12-29T03:37:05.404Z,993.10
2022-12-29T03:38:05.407Z,993.15
2022-12-29T03:39:05.384Z,993.05
2022-12-29T03:40:05.370Z,993.14
2022-12-29T03:41:05.365Z,993.20
2022-12-29T03:42:05.338Z,993.21
2022-12-29T03:43:05.333Z,993.19
2022-12-29T03:44:05.313Z,993.24
2022-12-29T03:45:05.326Z,993.26
2022-12-29T03:46:05.319Z,993.25
2022-12-29T03:47:05.288Z,993.28
2022-12-29T03:48:05.264Z,993.26
2022-12-29T03:49:05.272Z,993.30
2022-12-29T03:50:05.241Z,993.26
2022-12-29T03:51:05.238Z,993.28
2022-12-29T03:52:05.201Z,993.19
2022-12-29T03:53:05.222Z,993.24
2022-12-29T03:54:05.194Z,993.18
2022-12-29T03:55:05.186Z,993.18
2022-12-29T03:56:05.151Z,993.20
2022-12-29T03:57:05.152Z,993.24
2022-12-29T03:58:05.131Z,993.20
2022-12-29T03:59:05.118Z,993.11
2022-12-29T04:00:05.119Z,993.15
2022-12-29T04:01:05.144Z,993.17
2022-12-29T04:02:05.238Z,993.15
2022-12-29T04:03:05.179Z,993.17
2022-12-29T04:04:05.052Z,993.20
2022-12-29T04:05:05.076Z,993.23
2022-12-29T04:06:05.015Z,993.21
2022-12-29T04:07:04.999Z,993.28
2022-12-29T04:08:04.998Z,993.29
2022-12-29T04:09:05.017Z,993.33
2022-12-29T04:10:04.987Z,993.35
2022-12-29T04:11:04.987Z,993.34
2022-12-29T04:12:04.948Z,993.33
2022-12-29T04:13:04.946Z,993.32
2022-12-29T04:14:04.935Z,993.31
2022-12-29T04:15:04.921Z,993.30
2022-12-29T04:16:04.907Z,993.36
2022-12-29T04:17:04.879Z,993.32
2022-12-29T04:18:04.891Z,993.35
2022-12-29T04:19:04.861Z,993.39
2022-12-29T04:20:04.953Z,993.36
2022-12-29T04:21:04.853Z,993.31
2022-12-29T04:22:04.808Z,993.37
2022-12-29T04:23:04.817Z,993.35
2022-12-29T04:24:04.783Z,993.34
2022-12-29T04:25:04.797Z,993.32
2022-12-29T04:26:04.773Z,993.29
2022-12-29T04:27:04.817Z,993.24
2022-12-29T04:28:04.729Z,993.27
2022-12-29T04:29:04.728Z,993.26
2022-12-29T04:30:04.728Z,993.18
2022-12-29T04:31:04.766Z,993.21
2022-12-29T04:32:04.678Z,993.20
2022-12-29T04:33:04.670Z,993.17
2022-12-29T04:34:04.678Z,993.19
2022-12-29T04:35:04.662Z,993.14
2022-12-29T04:36:04.628Z,993.13
2022-12-29T04:37:04.633Z,993.08
2022-12-29T04:38:04.613Z,993.12
2022-12-29T04:39:04.607Z,993.15
2022-12-29T04:40:04.596Z,993.16
2022-12-29T04:41:04.597Z,993.15
2022-12-29T04:42:04.577Z,993.20
2022-12-29T04:43:04.538Z,993.17
2022-12-29T04:44:04.527Z,993.18
2022-12-29T04:45:04.552Z,993.13
2022-12-29T04:46:04.555Z,993.20
2022-12-29T04:47:04.510Z,993.09
2022-12-29T04:48:04.517Z,993.13
2022-12-29T04:49:04.487Z,993.10
2022-12-29T04:50:04.460Z,993.03
2022-12-29T04:51:04.437Z,993.04
2022-12-29T04:52:04.446Z,992.96
2022-12-29T04:53:04.405Z,992.92
2022-12-29T04:54:04.386Z,992.87
2022-12-29T04:55:04.408Z,992.90
2022-12-29T04:56:04.377Z,992.81
2022-12-29T04:57:04.376Z,992.81
2022-12-29T04:58:04.352Z,992.84
2022-12-29T04:59:04.344Z,992.84
2022-12-29T05:00:04.337Z,992.83
2022-12-29T05:01:04.316Z,992.79
2022-12-29T05:02:04.387Z,992.73
2022-12-29T05:03:04.428Z,992.76
2022-12-29T05:04:04.334Z,992.74
2022-12-29T05:05:04.284Z,992.76
2022-12-29T05:06:04.244Z,992.78
2022-12-29T05:07:04.251Z,992.82
2022-12-29T05:08:04.204Z,992.82
2022-12-29T05:09:04.211Z,992.83
2022-12-29T05:10:04.214Z,992.78
2022-12-29T05:11:04.180Z,992.79
2022-12-29T05:12:04.189Z,992.87
2022-12-29T05:13:04.149Z,992.80
2022-12-29T05:14:04.134Z,992.77
2022-12-29T05:15:04.146Z,992.66
2022-12-29T05:16:04.168Z,992.72
2022-12-29T05:17:04.126Z,992.60
2022-12-29T05:18:04.094Z,992.60
2022-12-29T05:19:04.072Z,992.52
2022-12-29T05:20:04.081Z,992.58
2022-12-29T05:21:04.058Z,992.51
2022-12-29T05:22:04.018Z,992.55
2022-12-29T05:23:04.012Z,992.58
2022-12-29T05:24:03.993Z,992.51
2022-12-29T05:25:04.028Z,992.51
2022-12-29T05:26:04.002Z,992.54
2022-12-29T05:27:04.011Z,992.53
2022-12-29T05:28:03.975Z,992.54
2022-12-29T05:29:03.942Z,992.59
2022-12-29T05:30:03.932Z,992.56
2022-12-29T05:31:04.010Z,992.52
2022-12-29T05:32:03.910Z,992.49
2022-12-29T05:33:03.880Z,992.52
2022-12-29T05:34:03.892Z,992.52
2022-12-29T05:35:03.875Z,992.47
2022-12-29T05:36:03.859Z,992.42
2022-12-29T05:37:03.872Z,992.45
2022-12-29T05:38:03.876Z,992.48
2022-12-29T05:39:03.827Z,992.54
2022-12-29T05:40:03.812Z,992.49
2022-12-29T05:41:03.799Z,992.55
2022-12-29T05:42:03.769Z,992.53
2022-12-29T05:43:03.771Z,992.56
2022-12-29T05:44:03.747Z,992.52
2022-12-29T05:45:03.758Z,992.50
2022-12-29T05:46:03.715Z,992.52
2022-12-29T05:47:03.806Z,992.66
2022-12-29T05:48:03.708Z,992.67
2022-12-29T05:49:03.692Z,992.62
2022-12-29T05:50:03.679Z,992.70
2022-12-29T05:51:03.652Z,992.68
2022-12-29T05:52:03.640Z,992.68
2022-12-29T05:53:03.634Z,992.68
2022-12-29T05:54:03.620Z,992.69
2022-12-29T05:55:03.623Z,992.68
2022-12-29T05:56:03.628Z,992.65
2022-12-29T05:57:03.580Z,992.70
2022-12-29T05:58:03.561Z,992.69
2022-12-29T05:59:03.591Z,992.67
2022-12-29T06:00:03.549Z,992.69
2022-12-29T06:01:03.508Z,992.70
2022-12-29T06:02:03.713Z,992.71
2022-12-29T06:03:03.700Z,992.63
2022-12-29T06:04:03.624Z,992.59
2022-12-29T06:05:03.497Z,992.54
2022-12-29T06:06:03.441Z,992.53
2022-12-29T06:07:03.452Z,992.53
2022-12-29T06:08:03.455Z,992.55
2022-12-29T06:09:03.427Z,992.65
2022-12-29T06:10:03.432Z,992.65
2022-12-29T06:11:03.396Z,992.67
2022-12-29T06:12:03.372Z,992.64
2022-12-29T06:13:03.359Z,992.72
2022-12-29T06:14:03.347Z,992.67
2022-12-29T06:15:03.351Z,992.71
2022-12-29T06:16:03.325Z,992.61
2022-12-29T06:17:03.323Z,992.60
2022-12-29T06:18:03.323Z,992.55
2022-12-29T06:19:03.305Z,992.59
2022-12-29T06:20:03.278Z,992.57
2022-12-29T06:21:03.325Z,992.65
2022-12-29T06:22:03.245Z,992.65
2022-12-29T06:23:03.224Z,992.78
2022-12-29T06:24:03.226Z,992.76
2022-12-29T06:25:05.124Z,992.83
2022-12-29T06:26:03.205Z,992.74
2022-12-29T06:27:03.173Z,992.77
2022-12-29T06:28:03.161Z,992.82
2022-12-29T06:29:03.158Z,992.76
2022-12-29T06:30:03.165Z,992.77
2022-12-29T06:31:03.137Z,992.75
2022-12-29T06:32:03.171Z,992.80
2022-12-29T06:33:03.120Z,992.68
2022-12-29T06:34:08.123Z,992.72
2022-12-29T06:35:04.104Z,992.73
2022-12-29T06:36:03.048Z,992.76
2022-12-29T06:37:03.045Z,992.78
2022-12-29T06:38:03.041Z,992.80
2022-12-29T06:39:03.021Z,992.81
2022-12-29T06:40:03.074Z,992.75
2022-12-29T06:41:02.998Z,992.83
2022-12-29T06:42:02.964Z,992.89
2022-12-29T06:43:02.978Z,992.83
2022-12-29T06:44:02.944Z,992.91
2022-12-29T06:45:02.958Z,992.83
2022-12-29T06:46:02.964Z,992.85
2022-12-29T06:47:02.915Z,992.74
2022-12-29T06:48:02.909Z,992.76
2022-12-29T06:49:02.887Z,992.75
2022-12-29T06:50:02.891Z,992.75
2022-12-29T06:51:02.887Z,992.59
2022-12-29T06:52:06.212Z,992.68
2022-12-29T06:53:03.875Z,992.60
2022-12-29T06:54:02.824Z,992.54
2022-12-29T06:55:02.798Z,992.53
2022-12-29T06:56:02.801Z,992.55
2022-12-29T06:57:02.805Z,992.50
2022-12-29T06:58:02.794Z,992.52
2022-12-29T06:59:02.767Z,992.45
2022-12-29T07:00:02.765Z,992.43
2022-12-29T07:01:02.860Z,992.41
2022-12-29T07:02:02.888Z,992.42
2022-12-29T07:03:02.722Z,992.34
2022-12-29T07:04:02.699Z,992.32
2022-12-29T07:05:02.671Z,992.27
2022-12-29T07:06:02.688Z,992.26
2022-12-29T07:07:02.641Z,992.30
2022-12-29T07:08:02.642Z,992.21
2022-12-29T07:09:02.601Z,992.26
2022-12-29T07:10:02.615Z,992.24
2022-12-29T07:11:02.608Z,992.28
2022-12-29T07:12:02.576Z,992.31
2022-12-29T07:13:02.553Z,992.34
2022-12-29T07:14:02.566Z,992.37
2022-12-29T07:15:02.519Z,992.42
2022-12-29T07:16:02.532Z,992.44
2022-12-29T07:17:02.574Z,992.40
2022-12-29T07:18:02.518Z,992.36
2022-12-29T07:19:02.654Z,992.37
2022-12-29T07:20:02.496Z,992.32
2022-12-29T07:21:02.487Z,992.32
2022-12-29T07:22:02.460Z,992.32
2022-12-29T07:23:02.430Z,992.33
2022-12-29T07:24:02.430Z,992.32
2022-12-29T07:25:02.413Z,992.30
2022-12-29T07:26:02.413Z,992.34
2022-12-29T07:27:02.378Z,992.27
2022-12-29T07:28:02.360Z,992.36
2022-12-29T07:29:02.377Z,992.31
2022-12-29T07:30:02.342Z,992.28
2022-12-29T07:31:02.353Z,992.25
2022-12-29T07:32:02.384Z,992.27
2022-12-29T07:33:02.301Z,992.24
2022-12-29T07:34:02.311Z,992.24
2022-12-29T07:35:02.260Z,992.21
2022-12-29T07:36:02.271Z,992.21
2022-12-29T07:37:02.249Z,992.24
2022-12-29T07:38:02.259Z,992.23
2022-12-29T07:39:02.236Z,992.25
2022-12-29T07:40:02.228Z,992.27
2022-12-29T07:41:02.229Z,992.30
2022-12-29T07:42:05.109Z,992.30
2022-12-29T07:43:02.184Z,992.31
2022-12-29T07:44:02.169Z,992.28
2022-12-29T07:45:02.172Z,992.29
2022-12-29T07:46:02.162Z,992.34
2022-12-29T07:47:02.271Z,992.29
2022-12-29T07:48:02.099Z,992.30
2022-12-29T07:49:02.092Z,992.31
2022-12-29T07:50:02.108Z,992.33
2022-12-29T07:51:02.077Z,992.36
2022-12-29T07:52:02.110Z,992.29
2022-12-29T07:53:02.037Z,992.34
2022-12-29T07:54:02.038Z,992.38
2022-12-29T07:55:02.027Z,992.39
2022-12-29T07:56:02.027Z,992.37
2022-12-29T07:57:02.018Z,992.37
2022-12-29T07:58:02.004Z,992.37
2022-12-29T07:59:01.957Z,992.39
2022-12-29T08:00:01.971Z,992.47
2022-12-29T08:01:02.024Z,992.45
2022-12-29T08:02:02.079Z,992.37
2022-12-29T08:03:01.906Z,992.39
2022-12-29T08:04:01.953Z,992.41
2022-12-29T08:05:01.869Z,992.49
2022-12-29T08:06:01.877Z,992.37
2022-12-29T08:07:01.844Z,992.42
2022-12-29T08:08:01.874Z,992.34
2022-12-29T08:09:11.021Z,992.45
2022-12-29T08:10:02.824Z,992.43
2022-12-29T08:11:01.834Z,992.47
2022-12-29T08:12:01.792Z,992.42
2022-12-29T08:13:01.763Z,992.49
2022-12-29T08:14:01.772Z,992.55
2022-12-29T08:15:01.755Z,992.64
2022-12-29T08:16:01.810Z,992.68
2022-12-29T08:17:01.722Z,992.70
2022-12-29T08:18:01.712Z,992.69
2022-12-29T08:19:01.704Z,992.74
2022-12-29T08:20:01.717Z,992.77
2022-12-29T08:21:01.699Z,992.76
2022-12-29T08:22:01.672Z,992.77
2022-12-29T08:23:01.679Z,992.79
2022-12-29T08:24:01.658Z,992.67
2022-12-29T08:25:01.617Z,992.65
2022-12-29T08:26:01.624Z,992.65
2022-12-29T08:27:08.371Z,992.68
2022-12-29T08:28:02.589Z,992.70
2022-12-29T08:29:01.582Z,992.73
2022-12-29T08:30:01.632Z,992.70
2022-12-29T08:31:01.701Z,992.76
2022-12-29T08:32:01.567Z,992.73
2022-12-29T08:33:01.500Z,992.74
2022-12-29T08:34:01.503Z,992.76
2022-12-29T08:35:01.552Z,992.82
2022-12-29T08:36:01.492Z,992.79
2022-12-29T08:37:01.460Z,992.76
2022-12-29T08:38:01.491Z,992.76
2022-12-29T08:39:01.426Z,992.79
2022-12-29T08:40:01.428Z,992.76
2022-12-29T08:41:01.429Z,992.75
2022-12-29T08:42:01.400Z,992.78
2022-12-29T08:43:01.372Z,992.73
2022-12-29T08:44:01.367Z,992.75
2022-12-29T08:45:01.364Z,992.74
2022-12-29T08:46:01.426Z,992.72
2022-12-29T08:47:01.337Z,992.75
2022-12-29T08:48:01.311Z,992.76
2022-12-29T08:49:01.307Z,992.74
2022-12-29T08:50:01.304Z,992.76
2022-12-29T08:51:01.287Z,992.77
2022-12-29T08:52:01.289Z,992.80
2022-12-29T08:53:01.255Z,992.77
2022-12-29T08:54:01.259Z,992.74
2022-12-29T08:55:01.218Z,992.70
2022-12-29T08:56:05.122Z,992.74
2022-12-29T08:57:01.194Z,992.72
2022-12-29T08:58:01.192Z,992.60
2022-12-29T08:59:01.160Z,992.69
2022-12-29T09:00:01.185Z,992.69
2022-12-29T09:01:01.161Z,992.65
2022-12-29T09:02:01.218Z,992.67
2022-12-29T09:03:01.302Z,992.56
2022-12-29T09:04:17.782Z,992.57
2022-12-29T09:05:02.181Z,992.60
2022-12-29T09:06:01.109Z,992.49
2022-12-29T09:07:01.096Z,992.59
2022-12-29T09:08:01.047Z,992.60
2022-12-29T09:09:01.048Z,992.59
2022-12-29T09:10:01.029Z,992.59
2022-12-29T09:11:01.019Z,992.52
2022-12-29T09:12:00.999Z,992.61
2022-12-29T09:13:00.989Z,992.63
2022-12-29T09:14:00.981Z,992.57
2022-12-29T09:15:00.945Z,992.62
2022-12-29T09:16:00.996Z,992.61
2022-12-29T09:17:00.948Z,992.61
2022-12-29T09:18:00.911Z,992.67
2022-12-29T09:19:00.913Z,992.71
2022-12-29T09:20:00.884Z,992.65
2022-12-29T09:21:00.887Z,992.67
2022-12-29T09:22:00.879Z,992.67
2022-12-29T09:23:00.857Z,992.64
2022-12-29T09:24:00.838Z,992.61
2022-12-29T09:25:00.847Z,992.69
2022-12-29T09:26:00.872Z,992.67
2022-12-29T09:27:00.796Z,992.69
2022-12-29T09:28:00.781Z,992.67
2022-12-29T09:29:00.774Z,992.71
2022-12-29T09:30:00.774Z,992.76
2022-12-29T09:31:00.811Z,992.67
2022-12-29T09:32:00.740Z,992.61
2022-12-29T09:33:00.726Z,992.64
2022-12-29T09:34:00.716Z,992.63
2022-12-29T09:35:00.687Z,992.62
2022-12-29T09:36:00.702Z,992.54
2022-12-29T09:37:00.710Z,992.61
2022-12-29T09:38:00.681Z,992.63
2022-12-29T09:39:00.654Z,992.63
2022-12-29T09:40:00.634Z,992.60
2022-12-29T09:41:00.632Z,992.64
2022-12-29T09:42:00.635Z,992.55
2022-12-29T09:43:00.626Z,992.61
2022-12-29T09:44:00.601Z,992.54
2022-12-29T09:45:00.559Z,992.45
2022-12-29T09:46:00.575Z,992.51
2022-12-29T09:47:00.572Z,992.47
2022-12-29T09:48:04.144Z,992.55
2022-12-29T09:49:01.511Z,992.49
2022-12-29T09:50:00.491Z,992.55
2022-12-29T09:51:00.516Z,992.53
2022-12-29T09:52:00.467Z,992.54
2022-12-29T09:53:00.475Z,992.58
2022-12-29T09:54:00.448Z,992.54
2022-12-29T09:55:05.006Z,992.56
2022-12-29T09:56:01.433Z,992.57
2022-12-29T09:57:00.420Z,992.59
2022-12-29T09:58:00.415Z,992.59
2022-12-29T09:59:00.384Z,992.59
2022-12-29T10:00:00.387Z,992.56
2022-12-29T10:01:00.438Z,992.66
2022-12-29T10:02:00.528Z,992.58
2022-12-29T10:03:00.481Z,992.55
2022-12-29T10:04:00.318Z,992.56
2022-12-29T10:05:00.293Z,992.59
2022-12-29T10:06:00.314Z,992.66
2022-12-29T10:08:01.287Z,992.60
2022-12-29T10:09:00.235Z,992.49
2022-12-29T10:10:00.234Z,992.56
2022-12-29T10:11:00.219Z,992.50
2022-12-29T10:12:00.202Z,992.47
2022-12-29T10:13:00.231Z,992.48
2022-12-29T10:14:00.188Z,992.52
2022-12-29T10:15:00.176Z,992.51
2022-12-29T10:16:00.196Z,992.50
2022-12-29T10:17:00.137Z,992.45
2022-12-29T10:18:00.128Z,992.53
2022-12-29T10:19:00.112Z,992.45
2022-12-29T10:20:00.160Z,992.48
2022-12-29T10:21:00.106Z,992.50
2022-12-29T10:22:00.107Z,992.42
2022-12-29T10:23:00.112Z,992.42
2022-12-29T10:24:00.063Z,992.44
2022-12-29T10:25:00.025Z,992.35
2022-12-29T10:26:00.049Z,992.33
2022-12-29T10:27:00.002Z,992.38
2022-12-29T10:28:00.033Z,992.32
2022-12-29T10:28:59.989Z,992.27
2022-12-29T10:29:59.983Z,992.24
2022-12-29T10:31:05.085Z,992.28
2022-12-29T10:32:00.991Z,992.31
2022-12-29T10:32:59.943Z,992.28
2022-12-29T10:33:59.929Z,992.27
2022-12-29T10:34:59.913Z,992.32
2022-12-29T10:35:59.912Z,992.35
2022-12-29T10:36:59.954Z,992.32
2022-12-29T10:37:59.911Z,992.24
2022-12-29T10:38:59.862Z,992.30
2022-12-29T10:39:59.841Z,992.29
2022-12-29T10:40:59.847Z,992.30
2022-12-29T10:41:59.821Z,992.28
2022-12-29T10:42:59.828Z,992.31
2022-12-29T10:43:59.781Z,992.25
2022-12-29T10:44:59.789Z,992.23
2022-12-29T10:45:59.826Z,992.24
2022-12-29T10:46:59.748Z,992.25
2022-12-29T10:47:59.763Z,992.17
2022-12-29T10:48:59.728Z,992.12
2022-12-29T10:49:59.714Z,992.18
2022-12-29T10:51:02.021Z,992.15
2022-12-29T10:51:59.679Z,992.20
2022-12-29T10:52:59.705Z,992.20
2022-12-29T10:53:59.652Z,992.15
2022-12-29T10:54:59.669Z,992.03
2022-12-29T10:55:59.661Z,992.15
2022-12-29T10:56:59.634Z,992.08
2022-12-29T10:57:59.613Z,992.08
2022-12-29T10:58:59.593Z,992.07
2022-12-29T10:59:59.590Z,992.04
2022-12-29T11:00:59.668Z,992.10
2022-12-29T11:01:59.858Z,992.13
2022-12-29T11:02:59.733Z,992.11
2022-12-29T11:03:59.532Z,992.15
2022-12-29T11:04:59.524Z,992.19
2022-12-29T11:05:59.516Z,992.08
2022-12-29T11:06:59.473Z,992.17
2022-12-29T11:07:59.489Z,992.17
2022-12-29T11:08:59.462Z,992.20
2022-12-29T11:09:59.444Z,992.19
2022-12-29T11:10:59.457Z,992.18
2022-12-29T11:11:59.424Z,992.19
2022-12-29T11:12:59.485Z,992.15
2022-12-29T11:13:59.403Z,992.16
2022-12-29T11:14:59.406Z,992.21
2022-12-29T11:15:59.441Z,992.17
2022-12-29T11:16:59.405Z,992.18
2022-12-29T11:17:59.419Z,992.16
2022-12-29T11:18:59.341Z,992.16
2022-12-29T11:19:59.314Z,992.16
2022-12-29T11:20:59.328Z,992.21
2022-12-29T11:21:59.297Z,992.15
2022-12-29T11:22:59.268Z,992.21
2022-12-29T11:23:59.263Z,992.19
2022-12-29T11:24:59.302Z,992.21
2022-12-29T11:25:59.269Z,992.17
2022-12-29T11:26:59.233Z,992.18
2022-12-29T11:27:59.210Z,992.12
2022-12-29T11:28:59.218Z,992.11
2022-12-29T11:29:59.209Z,992.20
2022-12-29T11:30:59.183Z,992.24
2022-12-29T11:31:59.213Z,992.30
2022-12-29T11:32:59.237Z,992.28
2022-12-29T11:33:59.139Z,992.26
2022-12-29T11:34:59.138Z,992.22
2022-12-29T11:35:59.159Z,992.22
2022-12-29T11:36:59.116Z,992.32
2022-12-29T11:37:59.090Z,992.30
2022-12-29T11:38:59.068Z,992.18
2022-12-29T11:39:59.066Z,992.20
2022-12-29T11:40:59.067Z,992.13
2022-12-29T11:41:59.035Z,992.23
2022-12-29T11:42:59.061Z,992.16
2022-12-29T11:43:59.000Z,992.17
2022-12-29T11:44:59.006Z,992.17
2022-12-29T11:45:58.995Z,992.18
2022-12-29T11:46:58.968Z,992.15
2022-12-29T11:47:58.964Z,992.07
2022-12-29T11:48:58.946Z,992.08
2022-12-29T11:49:58.931Z,992.14
2022-12-29T11:50:58.925Z,992.15
2022-12-29T11:51:58.894Z,992.14
2022-12-29T11:52:58.924Z,992.15
2022-12-29T11:53:58.880Z,992.18
2022-12-29T11:54:58.878Z,992.19
2022-12-29T11:55:58.899Z,992.13
2022-12-29T11:56:58.855Z,992.22
2022-12-29T11:57:58.815Z,992.16
2022-12-29T11:58:58.822Z,992.19
2022-12-29T11:59:58.798Z,992.27
2022-12-29T12:00:58.799Z,992.27
2022-12-29T12:01:58.927Z,992.24
2022-12-29T12:02:58.798Z,992.30
2022-12-29T12:03:58.751Z,992.26
2022-12-29T12:04:58.735Z,992.20
2022-12-29T12:05:58.757Z,992.29
2022-12-29T12:06:58.723Z,992.22
2022-12-29T12:07:58.698Z,992.21
2022-12-29T12:08:58.679Z,992.26
2022-12-29T12:10:04.886Z,992.25
2022-12-29T12:10:59.687Z,992.21
2022-12-29T12:11:58.646Z,992.21
2022-12-29T12:12:58.625Z,992.23
2022-12-29T12:13:58.604Z,992.12
2022-12-29T12:14:58.614Z,992.24
2022-12-29T12:15:58.664Z,992.27
2022-12-29T12:16:58.613Z,992.22
2022-12-29T12:17:58.626Z,992.21
2022-12-29T12:18:58.584Z,992.25
2022-12-29T12:19:58.524Z,992.13
2022-12-29T12:20:58.547Z,992.17
2022-12-29T12:21:58.506Z,992.13
2022-12-29T12:22:58.497Z,992.15
2022-12-29T12:23:58.497Z,992.19
2022-12-29T12:24:58.474Z,992.18
2022-12-29T12:25:58.480Z,992.23
2022-12-29T12:26:58.444Z,992.24
2022-12-29T12:27:58.443Z,992.22
2022-12-29T12:28:58.451Z,992.16